Time;durP1;ratioP1;P1;durP2;ratioP2;P2;SDS_P1;SDS_P2;PMS_P1;PMS_P2;Temp;Humidity;BMP_temperature;BMP_pressure;BME280_temperature;BME280_humidity;BME280_pressure;Samples;Min_cycle;Max_cycle;Signal;HPM_P1;HPM_P2
2022/11/01 00:01:04;;;;;;;33.42;14.20;;;;;;;;;;4903917;28;20052;-69
2022/11/01 00:03:29;;;;;;;31.10;13.93;;;;;;;;;;4905772;29;20416;-69
2022/11/01 00:05:55;;;;;;;24.95;14.20;;;;;;;;;;4905381;28;20493;-69
2022/11/01 00:08:21;;;;;;;28.67;14.30;;;;;;;;;;4905742;29;20051;-69
2022/11/01 00:10:46;;;;;;;29.88;13.82;;;;;;;;;;4904691;29;20524;-69
2022/11/01 00:13:12;;;;;;;26.50;12.57;;;;;;;;;;4904608;28;20080;-69
2022/11/01 00:15:38;;;;;;;28.85;14.23;;;;;;;;;;4904819;29;20151;-69
2022/11/01 00:18:03;;;;;;;27.45;14.45;;;;;;;;;;4905238;28;20055;-69
2022/11/01 00:20:29;;;;;;;23.40;14.18;;;;;;;;;;4903892;29;20048;-69
2022/11/01 00:22:54;;;;;;;24.35;13.75;;;;;;;;;;4903380;29;20158;-69
2022/11/01 00:25:20;;;;;;;27.52;15.60;;;;;;;;;;4905121;29;20074;-69
2022/11/01 00:27:45;;;;;;;32.35;14.80;;;;;;;;;;4905247;29;20071;-69
2022/11/01 00:30:11;;;;;;;28.88;15.30;;;;;;;;;;4904712;28;20047;-69
2022/11/01 00:32:36;;;;;;;23.40;13.40;;;;;;;;;;4904390;29;20055;-69
2022/11/01 00:35:02;;;;;;;21.17;11.70;;;;;;;;;;4904530;28;20151;-69
2022/11/01 00:37:28;;;;;;;31.27;11.65;;;;;;;;;;4905138;29;20138;-69
2022/11/01 00:39:54;;;;;;;22.20;11.20;;;;;;;;;;4905105;29;20048;-68
2022/11/01 00:42:19;;;;;;;17.65;10.63;;;;;;;;;;4904816;28;20196;-69
2022/11/01 00:44:45;;;;;;;20.40;10.65;;;;;;;;;;4904382;29;20052;-69
2022/11/01 00:47:10;;;;;;;18.00;11.02;;;;;;;;;;4903651;28;20052;-69
2022/11/01 00:49:36;;;;;;;20.33;10.07;;;;;;;;;;4903501;29;20055;-69
2022/11/01 00:52:01;;;;;;;18.27;11.10;;;;;;;;;;4904597;29;20051;-69
2022/11/01 00:54:26;;;;;;;14.88;7.22;;;;;;;;;;4904439;28;20055;-69
2022/11/01 00:56:52;;;;;;;8.00;3.20;;;;;;;;;;4904272;29;20090;-68
2022/11/01 00:59:17;;;;;;;10.63;2.85;;;;;;;;;;4904435;28;20052;-69
2022/11/01 01:01:43;;;;;;;6.63;2.30;;;;;;;;;;4903865;29;20056;-69
2022/11/01 01:04:08;;;;;;;10.40;2.60;;;;;;;;;;4904913;29;20055;-68
2022/11/01 01:06:34;;;;;;;4.38;2.00;;;;;;;;;;4902400;29;20523;-68
2022/11/01 01:09:00;;;;;;;5.68;2.22;;;;;;;;;;4904083;29;20711;-69
2022/11/01 01:11:26;;;;;;;3.25;1.92;;;;;;;;;;4904339;28;20056;-69
2022/11/01 01:13:52;;;;;;;6.57;2.10;;;;;;;;;;4903561;29;20067;-69
2022/11/01 01:16:17;;;;;;;2.67;1.75;;;;;;;;;;4901969;29;20098;-68
2022/11/01 01:18:43;;;;;;;6.78;2.53;;;;;;;;;;4901882;29;20171;-69
2022/11/01 01:21:08;;;;;;;8.93;2.25;;;;;;;;;;4901761;29;20048;-69
2022/11/01 01:23:34;;;;;;;4.05;2.25;;;;;;;;;;4903163;28;20056;-69
2022/11/01 01:26:05;;;;;;;5.93;2.17;;;;;;;;;;4903497;29;20047;-69
2022/11/01 01:28:30;;;;;;;8.45;3.25;;;;;;;;;;4904492;29;20067;-69
2022/11/01 01:30:56;;;;;;;3.47;2.00;;;;;;;;;;4903475;28;20416;-69
2022/11/01 01:33:21;;;;;;;4.65;2.10;;;;;;;;;;4904477;29;20052;-69
2022/11/01 01:35:47;;;;;;;4.85;2.35;;;;;;;;;;4907459;28;20866;-68
2022/11/01 01:38:12;;;;;;;6.82;2.55;;;;;;;;;;4908391;29;20804;-69
2022/11/01 01:40:37;;;;;;;7.85;2.20;;;;;;;;;;4908060;29;20198;-69
2022/11/01 01:43:03;;;;;;;3.20;2.10;;;;;;;;;;4907483;28;20063;-68
2022/11/01 01:45:37;;;;;;;7.10;2.50;;;;;;;;;;4907873;29;20055;-68
2022/11/01 01:48:13;;;;;;;6.07;2.67;;;;;;;;;;4907123;28;20131;-69
2022/11/01 01:50:47;;;;;;;7.45;2.92;;;;;;;;;;4907854;29;20524;-69
2022/11/01 01:53:27;;;;;;;4.75;3.15;;;;;;;;;;4907132;28;20079;-69
2022/11/01 01:56:00;;;;;;;4.10;2.90;;;;;;;;;;4907840;29;20048;-69
2022/11/01 01:58:30;;;;;;;10.65;3.15;;;;;;;;;;4907407;29;20083;-69
2022/11/01 02:00:56;;;;;;;7.20;3.28;;;;;;;;;;4906668;28;20064;-69
2022/11/01 02:03:26;;;;;;;5.97;3.00;;;;;;;;;;4907924;29;20678;-68
2022/11/01 02:05:56;;;;;;;6.22;3.00;;;;;;;;;;4907618;28;20480;-68
2022/11/01 02:08:28;;;;;;;7.20;2.80;;;;;;;;;;4903509;29;20051;-69
2022/11/01 02:10:55;;;;;;;;;;;;;;;;;;4907162;28;20070;-70
2022/11/01 02:13:20;;;;;;;5.43;3.00;;;;;;;;;;4907438;29;19927;-69
2022/11/01 02:16:06;;;;;;;11.27;2.80;;;;;;;;;;4906352;29;20051;-69
2022/11/01 02:18:42;;;;;;;4.72;2.53;;;;;;;;;;4908697;28;20527;-68
2022/11/01 02:21:36;;;;;;;7.80;3.08;;;;;;;;;;4904764;29;20151;-69
2022/11/01 02:24:20;;;;;;;6.15;2.78;;;;;;;;;;4906350;28;20099;-69
2022/11/01 02:26:55;;;;;;;4.43;3.05;;;;;;;;;;4906038;29;20111;-69
2022/11/01 02:29:49;;;;;;;7.75;2.40;;;;;;;;;;4905804;28;20147;-69
2022/11/01 02:32:30;;;;;;;6.85;3.28;;;;;;;;;;4904513;29;20048;-69
2022/11/01 02:35:13;;;;;;;7.85;2.67;;;;;;;;;;4905788;28;20060;-70
2022/11/01 02:38:00;;;;;;;3.15;2.15;;;;;;;;;;4906010;29;20060;-69
2022/11/01 02:40:41;;;;;;;6.70;3.00;;;;;;;;;;4906293;29;20054;-69
2022/11/01 02:43:16;;;;;;;4.72;2.42;;;;;;;;;;4902983;29;20560;-68
2022/11/01 02:45:47;;;;;;;4.22;2.10;;;;;;;;;;4905097;29;20052;-69
2022/11/01 02:48:12;;;;;;;3.13;1.55;;;;;;;;;;4905941;28;20060;-69
2022/11/01 02:50:42;;;;;;;6.05;2.20;;;;;;;;;;4905677;29;20067;-69
2022/11/01 02:53:08;;;;;;;4.85;1.90;;;;;;;;;;4904667;28;20052;-69
2022/11/01 02:55:34;;;;;;;8.02;2.58;;;;;;;;;;4905912;29;20130;-68
2022/11/01 02:58:12;;;;;;;4.97;2.38;;;;;;;;;;4905803;29;20059;-69
2022/11/01 03:00:39;;;;;;;9.65;2.50;;;;;;;;;;4905520;28;20449;-69
2022/11/01 03:03:27;;;;;;;7.78;2.58;;;;;;;;;;4904774;29;20040;-69
2022/11/01 03:06:03;;;;;;;5.53;2.60;;;;;;;;;;4905463;28;20094;-69
2022/11/01 03:08:31;;;;;;;6.95;2.95;;;;;;;;;;4905617;29;20401;-69
2022/11/01 03:11:05;;;;;;;10.75;2.92;;;;;;;;;;4904901;28;20052;-69
2022/11/01 03:13:56;;;;;;;6.72;3.28;;;;;;;;;;4905579;29;20115;-69
2022/11/01 03:16:33;;;;;;;9.07;3.60;;;;;;;;;;4868704;29;1084291;-69
2022/11/01 03:19:27;;;;;;;4.78;2.88;;;;;;;;;;4906044;28;20139;-68
2022/11/01 03:21:53;;;;;;;4.78;2.88;;;;;;;;;;4905935;29;20051;-68
2022/11/01 03:24:36;;;;;;;7.72;3.63;;;;;;;;;;4906775;28;20122;-68
2022/11/01 03:27:26;;;;;;;7.88;3.50;;;;;;;;;;4904832;29;20075;-69
2022/11/01 03:29:58;;;;;;;6.45;3.33;;;;;;;;;;4906078;28;20056;-69
2022/11/01 03:32:29;;;;;;;6.40;3.15;;;;;;;;;;4905571;29;20103;-69
2022/11/01 03:34:57;;;;;;;7.30;3.10;;;;;;;;;;4905714;28;20044;-69
2022/11/01 03:37:23;;;;;;;5.78;3.17;;;;;;;;;;4905301;29;20074;-68
2022/11/01 03:39:51;;;;;;;8.57;3.63;;;;;;;;;;4906327;29;20107;-69
2022/11/01 03:42:20;;;;;;;8.02;3.75;;;;;;;;;;4905892;28;20067;-69
2022/11/01 03:44:54;;;;;;;7.72;3.70;;;;;;;;;;4905948;29;20059;-69
2022/11/01 03:47:20;;;;;;;6.95;3.60;;;;;;;;;;4903942;28;20514;-69
2022/11/01 03:49:45;;;;;;;9.45;3.42;;;;;;;;;;4905988;29;20192;-69
2022/11/01 03:52:11;;;;;;;5.95;3.97;;;;;;;;;;4905488;29;20122;-69
2022/11/01 03:54:36;;;;;;;10.80;3.75;;;;;;;;;;4905856;28;20184;-68
2022/11/01 03:57:02;;;;;;;8.98;3.47;;;;;;;;;;4904160;29;20106;-69
2022/11/01 03:59:27;;;;;;;10.15;3.83;;;;;;;;;;4905262;28;20134;-69
2022/11/01 04:01:53;;;;;;;5.35;2.90;;;;;;;;;;4904687;29;20981;-69
2022/11/01 04:04:18;;;;;;;10.00;3.45;;;;;;;;;;4905846;29;20106;-69
2022/11/01 04:06:44;;;;;;;11.25;3.83;;;;;;;;;;4904234;28;20110;-68
2022/11/01 04:09:09;;;;;;;5.55;3.15;;;;;;;;;;4901990;29;20071;-68
2022/11/01 04:11:35;;;;;;;5.03;2.97;;;;;;;;;;4905084;28;20056;-69
2022/11/01 04:22:13;;;;;;;6.80;3.60;;;;;;;;;;4902233;29;20058;-68
2022/11/01 04:24:42;;;;;;;7.55;3.38;;;;;;;;;;4904530;28;20970;-69
2022/11/01 04:27:07;;;;;;;6.45;3.90;;;;;;;;;;4904608;29;20051;-69
2022/11/01 04:29:33;;;;;;;10.65;4.50;;;;;;;;;;4905044;28;20055;-68
2022/11/01 04:31:58;;;;;;;18.92;9.73;;;;;;;;;;4903556;29;20047;-68
2022/11/01 04:34:41;;;;;;;20.00;8.77;;;;;;;;;;4904997;29;20052;-69
2022/11/01 04:37:07;;;;;;;10.43;4.75;;;;;;;;;;4904157;28;20052;-69
2022/11/01 04:39:33;;;;;;;5.45;3.88;;;;;;;;;;4904168;29;20052;-69
2022/11/01 04:41:58;;;;;;;12.43;4.07;;;;;;;;;;4904802;28;20067;-68
2022/11/01 04:44:24;;;;;;;8.02;4.00;;;;;;;;;;4904518;29;20052;-68
2022/11/01 04:46:49;;;;;;;9.20;3.22;;;;;;;;;;4904732;29;20052;-68
2022/11/01 04:49:15;;;;;;;9.20;3.47;;;;;;;;;;4903156;29;20074;-68
2022/11/01 04:51:41;;;;;;;5.07;3.33;;;;;;;;;;4904701;29;20056;-69
2022/11/01 04:54:06;;;;;;;4.90;2.97;;;;;;;;;;4903987;28;20048;-68
2022/11/01 04:56:33;;;;;;;4.68;3.55;;;;;;;;;;4904921;29;20473;-69
2022/11/01 04:58:58;;;;;;;8.50;4.57;;;;;;;;;;4904150;28;20060;-69
2022/11/01 05:01:24;;;;;;;10.93;4.53;;;;;;;;;;4904381;29;20159;-68
2022/11/01 05:03:49;;;;;;;10.20;4.40;;;;;;;;;;4904902;29;20064;-69
2022/11/01 05:06:14;;;;;;;10.48;3.97;;;;;;;;;;4903827;28;20060;-69
2022/11/01 05:08:40;;;;;;;12.02;4.15;;;;;;;;;;4904512;29;20066;-68
2022/11/01 05:11:05;;;;;;;7.35;3.50;;;;;;;;;;4903934;28;20123;-69
2022/11/01 05:13:31;;;;;;;6.45;3.55;;;;;;;;;;4904656;29;20056;-69
2022/11/01 05:15:56;;;;;;;7.00;3.13;;;;;;;;;;4903035;29;20048;-69
2022/11/01 05:18:22;;;;;;;7.88;3.95;;;;;;;;;;4904611;28;20052;-69
2022/11/01 05:20:47;;;;;;;10.43;4.20;;;;;;;;;;4904301;29;20947;-69
2022/11/01 05:23:12;;;;;;;11.25;4.00;;;;;;;;;;4903866;28;20121;-69
2022/11/01 05:25:38;;;;;;;8.00;3.30;;;;;;;;;;4904348;29;20048;-69
2022/11/01 05:28:06;;;;;;;5.47;3.75;;;;;;;;;;4904105;29;20195;-68
2022/11/01 05:30:36;;;;;;;10.65;3.58;;;;;;;;;;4904141;28;20059;-68
2022/11/01 05:33:03;;;;;;;8.20;4.57;;;;;;;;;;4903536;29;20048;-68
2022/11/01 05:35:30;;;;;;;5.80;3.88;;;;;;;;;;4904507;28;20806;-69
2022/11/01 05:37:56;;;;;;;6.90;3.20;;;;;;;;;;4903925;29;20070;-69
2022/11/01 05:40:22;;;;;;;5.05;3.45;;;;;;;;;;4904105;29;20055;-68
2022/11/01 05:42:48;;;;;;;8.48;3.40;;;;;;;;;;4903976;28;20056;-69
2022/11/01 05:45:13;;;;;;;7.80;3.20;;;;;;;;;;4903680;29;20051;-68
2022/11/01 05:47:40;;;;;;;8.73;3.55;;;;;;;;;;4904219;28;20063;-69
2022/11/01 05:50:12;;;;;;;7.93;2.88;;;;;;;;;;4903605;29;20571;-68
2022/11/01 05:52:38;;;;;;;8.85;3.38;;;;;;;;;;4904185;29;20564;-68
2022/11/01 05:55:04;;;;;;;5.90;3.38;;;;;;;;;;4903754;28;20139;-68
2022/11/01 05:57:30;;;;;;;7.50;3.17;;;;;;;;;;4904141;29;20843;-69
2022/11/01 05:59:55;;;;;;;6.43;3.13;;;;;;;;;;4903564;28;20087;-69
2022/11/01 06:02:21;;;;;;;7.95;3.00;;;;;;;;;;4903506;29;20135;-69
2022/11/01 06:04:46;;;;;;;7.13;2.72;;;;;;;;;;4904399;29;20146;-69
2022/11/01 06:07:12;;;;;;;13.80;4.03;;;;;;;;;;4903364;28;20909;-69
2022/11/01 06:09:37;;;;;;;8.38;4.38;;;;;;;;;;4904262;29;20055;-69
2022/11/01 06:12:03;;;;;;;7.32;3.45;;;;;;;;;;4902528;28;20048;-69
2022/11/01 06:14:29;;;;;;;9.45;4.82;;;;;;;;;;4904206;29;20040;-69
2022/11/01 06:16:54;;;;;;;7.97;4.40;;;;;;;;;;4903188;29;20108;-69
2022/11/01 06:19:19;;;;;;;9.48;3.80;;;;;;;;;;4903479;28;20107;-69
2022/11/01 06:21:45;;;;;;;6.03;3.80;;;;;;;;;;4906600;29;20173;-69
2022/11/01 06:24:10;;;;;;;7.70;4.35;;;;;;;;;;4907419;28;20046;-69
2022/11/01 06:26:36;;;;;;;7.05;3.65;;;;;;;;;;4907173;29;20071;-69
2022/11/01 06:29:02;;;;;;;11.15;3.58;;;;;;;;;;4906869;28;20106;-69
2022/11/01 06:31:28;;;;;;;8.30;3.80;;;;;;;;;;4907074;29;20040;-69
2022/11/01 06:33:53;;;;;;;10.23;4.10;;;;;;;;;;4906741;29;20067;-69
2022/11/01 06:36:19;;;;;;;7.80;4.30;;;;;;;;;;4907042;28;20556;-69
2022/11/01 06:38:44;;;;;;;17.05;5.30;;;;;;;;;;4907314;29;20995;-69
2022/11/01 06:41:10;;;;;;;12.32;3.53;;;;;;;;;;4906565;28;20068;-69
2022/11/01 06:43:35;;;;;;;12.80;3.85;;;;;;;;;;4905269;29;20052;-69
2022/11/01 06:46:01;;;;;;;9.30;3.30;;;;;;;;;;4905105;29;20047;-70
2022/11/01 06:48:27;;;;;;;6.55;3.42;;;;;;;;;;4906952;28;20059;-70
2022/11/01 06:50:54;;;;;;;8.38;3.10;;;;;;;;;;4906933;29;20120;-70
2022/11/01 06:53:22;;;;;;;8.02;3.97;;;;;;;;;;4906087;28;20059;-70
2022/11/01 06:55:47;;;;;;;7.43;3.60;;;;;;;;;;4905910;29;20056;-69
2022/11/01 06:58:13;;;;;;;5.13;3.35;;;;;;;;;;4906844;29;20096;-69
2022/11/01 07:00:38;;;;;;;5.85;3.05;;;;;;;;;;4906163;28;20059;-69
2022/11/01 07:03:06;;;;;;;8.85;3.10;;;;;;;;;;4906097;29;20088;-70
2022/11/01 07:05:33;;;;;;;6.95;2.80;;;;;;;;;;4906224;28;20082;-70
2022/11/01 07:08:00;;;;;;;7.05;3.60;;;;;;;;;;4906188;29;20552;-69
2022/11/01 07:10:26;;;;;;;4.82;2.83;;;;;;;;;;4906766;29;20043;-69
2022/11/01 07:12:59;;;;;;;4.93;2.50;;;;;;;;;;4906244;28;20123;-70
2022/11/01 07:15:25;;;;;;;5.75;2.50;;;;;;;;;;4906373;29;20859;-70
2022/11/01 07:17:58;;;;;;;3.35;2.25;;;;;;;;;;4905664;28;20449;-70
2022/11/01 07:20:24;;;;;;;3.58;2.50;;;;;;;;;;4906527;29;20051;-69
2022/11/01 07:22:57;;;;;;;6.55;2.80;;;;;;;;;;4906077;29;20048;-69
2022/11/01 07:25:22;;;;;;;5.22;2.22;;;;;;;;;;4905280;29;20058;-70
2022/11/01 07:27:48;;;;;;;4.30;1.98;;;;;;;;;;4905704;29;20056;-70
2022/11/01 07:30:13;;;;;;;7.80;2.20;;;;;;;;;;4905795;28;20055;-70
2022/11/01 07:32:39;;;;;;;4.93;2.15;;;;;;;;;;4904981;29;20063;-70
2022/11/01 07:35:05;;;;;;;7.65;2.97;;;;;;;;;;4905668;28;20050;-70
2022/11/01 07:37:30;;;;;;;6.30;2.40;;;;;;;;;;4905952;29;20059;-70
2022/11/01 07:39:55;;;;;;;3.80;2.42;;;;;;;;;;4905495;29;20083;-70
2022/11/01 07:42:21;;;;;;;4.88;2.30;;;;;;;;;;4905454;28;20108;-70
2022/11/01 07:44:46;;;;;;;6.70;2.30;;;;;;;;;;4906181;29;20052;-70
2022/11/01 07:47:12;;;;;;;6.03;2.10;;;;;;;;;;4904997;28;20232;-70
2022/11/01 07:49:37;;;;;;;9.07;2.40;;;;;;;;;;4905546;29;20087;-70
2022/11/01 07:52:03;;;;;;;3.15;1.90;;;;;;;;;;4905470;29;20052;-70
2022/11/01 07:54:28;;;;;;;8.25;2.30;;;;;;;;;;4906121;28;20054;-70
2022/11/01 07:56:54;;;;;;;9.68;2.17;;;;;;;;;;4905453;29;20058;-70
2022/11/01 07:59:19;;;;;;;3.22;2.05;;;;;;;;;;4905359;28;20088;-70
2022/11/01 08:01:45;;;;;;;11.98;2.42;;;;;;;;;;4904301;29;20153;-70
2022/11/01 08:04:10;;;;;;;4.30;2.13;;;;;;;;;;4905819;29;20052;-70
2022/11/01 08:06:36;;;;;;;7.72;2.20;;;;;;;;;;4905557;28;20047;-70
2022/11/01 08:09:01;;;;;;;7.20;2.22;;;;;;;;;;4905286;29;20111;-70
2022/11/01 08:11:27;;;;;;;5.53;2.42;;;;;;;;;;4904743;28;20058;-70
2022/11/01 08:13:52;;;;;;;4.70;1.95;;;;;;;;;;4919754;29;20060;-70
2022/11/01 08:16:18;;;;;;;10.57;2.47;;;;;;;;;;4903597;29;20139;-70
2022/11/01 08:18:43;;;;;;;8.82;2.15;;;;;;;;;;4905336;28;20052;-69
2022/11/01 08:21:11;;;;;;;12.07;2.17;;;;;;;;;;4904964;29;20075;-70
2022/11/01 08:23:36;;;;;;;6.78;2.47;;;;;;;;;;4904396;28;20056;-69
2022/11/01 08:26:05;;;;;;;6.55;2.45;;;;;;;;;;4905036;29;20480;-70
2022/11/01 08:28:30;;;;;;;7.47;2.42;;;;;;;;;;4904024;29;20108;-69
2022/11/01 08:30:56;;;;;;;6.15;2.03;;;;;;;;;;4905071;28;20056;-70
2022/11/01 08:33:21;;;;;;;12.63;2.15;;;;;;;;;;4903845;29;20398;-69
2022/11/01 08:35:46;;;;;;;9.65;2.65;;;;;;;;;;4905162;28;20047;-69
2022/11/01 08:38:12;;;;;;;5.18;2.50;;;;;;;;;;4904984;29;20070;-69
2022/11/01 08:40:39;;;;;;;4.22;2.50;;;;;;;;;;4904962;29;20147;-69
2022/11/01 08:43:05;;;;;;;11.02;2.30;;;;;;;;;;4903908;28;20063;-70
2022/11/01 08:45:30;;;;;;;5.05;2.45;;;;;;;;;;4904207;29;20036;-70
2022/11/01 08:48:00;;;;;;;9.27;2.50;;;;;;;;;;4902723;29;20513;-69
2022/11/01 08:50:26;;;;;;;6.18;2.30;;;;;;;;;;4905075;29;20043;-70
2022/11/01 08:52:51;;;;;;;6.53;2.80;;;;;;;;;;4904547;29;20047;-70
2022/11/01 08:55:17;;;;;;;9.77;2.40;;;;;;;;;;4903596;28;20062;-69
2022/11/01 08:57:42;;;;;;;8.77;2.60;;;;;;;;;;4903167;29;20056;-70
2022/11/01 09:00:09;;;;;;;5.35;2.67;;;;;;;;;;4918773;28;20052;-70
2022/11/01 09:02:34;;;;;;;15.57;2.88;;;;;;;;;;4904538;29;20155;-70
2022/11/01 09:05:03;;;;;;;12.65;2.67;;;;;;;;;;4902785;28;20139;-70
2022/11/01 09:07:29;;;;;;;6.97;2.70;;;;;;;;;;4903841;29;20601;-70
2022/11/01 09:09:54;;;;;;;7.80;2.58;;;;;;;;;;4904562;29;20052;-70
2022/11/01 09:12:20;;;;;;;5.70;2.20;;;;;;;;;;4904367;28;20056;-69
2022/11/01 09:14:47;;;;;;;6.20;2.92;;;;;;;;;;4904589;29;20048;-70
2022/11/01 09:17:12;;;;;;;4.75;2.08;;;;;;;;;;4903166;28;20943;-70
2022/11/01 09:19:38;;;;;;;5.72;1.88;;;;;;;;;;4904620;29;20107;-70
2022/11/01 09:22:03;;;;;;;6.88;2.22;;;;;;;;;;4904166;29;20052;-70
2022/11/01 09:24:28;;;;;;;8.18;2.17;;;;;;;;;;4904750;28;20059;-70
2022/11/01 09:26:54;;;;;;;7.07;2.35;;;;;;;;;;4904241;29;20040;-70
2022/11/01 09:29:20;;;;;;;6.07;2.30;;;;;;;;;;4903423;28;20059;-69
2022/11/01 09:31:49;;;;;;;9.25;2.30;;;;;;;;;;4902388;29;20139;-70
2022/11/01 09:34:15;;;;;;;9.88;2.58;;;;;;;;;;4904536;29;20048;-70
2022/11/01 09:36:40;;;;;;;7.10;2.33;;;;;;;;;;4904388;28;20107;-70
2022/11/01 09:39:06;;;;;;;6.65;2.58;;;;;;;;;;4902931;29;20052;-70
2022/11/01 09:42:27;;;;;;;7.18;2.42;;;;;;;;;;4904370;28;20144;-70
2022/11/01 09:44:56;;;;;;;12.00;2.95;;;;;;;;;;4919953;29;20055;-70
2022/11/01 09:47:26;;;;;;;10.45;2.30;;;;;;;;;;4903658;28;20159;-70
2022/11/01 09:50:04;;;;;;;8.18;3.60;;;;;;;;;;4904295;29;20040;-70
2022/11/01 09:52:29;;;;;;;7.63;2.65;;;;;;;;;;4903329;29;20175;-70
2022/11/01 09:54:56;;;;;;;6.00;2.72;;;;;;;;;;4905284;28;20156;-70
2022/11/01 09:57:31;;;;;;;8.25;2.70;;;;;;;;;;4907202;29;20051;-70
2022/11/01 10:00:12;;;;;;;6.95;2.47;;;;;;;;;;4922649;28;20056;-70
2022/11/01 10:02:41;;;;;;;7.07;2.90;;;;;;;;;;4907282;29;20493;-70
2022/11/01 10:05:21;;;;;;;11.98;2.40;;;;;;;;;;4907466;28;20076;-71
2022/11/01 10:07:46;;;;;;;8.45;2.20;;;;;;;;;;4908013;29;20058;-70
2022/11/01 10:10:31;;;;;;;6.88;1.98;;;;;;;;;;4907582;29;20052;-71
2022/11/01 10:13:29;;;;;;;9.68;2.90;;;;;;;;;;4907020;28;20269;-70
2022/11/01 10:16:06;;;;;;;12.43;2.28;;;;;;;;;;4917650;29;20445;-70
2022/11/01 10:18:45;;;;;;;4.72;2.00;;;;;;;;;;4906423;29;20135;-70
2022/11/01 10:21:15;;;;;;;6.60;1.88;;;;;;;;;;4907198;29;20413;-70
2022/11/01 10:23:51;;;;;;;8.73;2.30;;;;;;;;;;4906705;28;20059;-71
2022/11/01 10:26:24;;;;;;;6.22;2.10;;;;;;;;;;4907362;29;21046;-70
2022/11/01 10:29:07;;;;;;;12.75;2.42;;;;;;;;;;4907355;29;20075;-70
2022/11/01 10:31:38;;;;;;;8.73;2.13;;;;;;;;;;4919039;29;20060;-71
2022/11/01 10:34:31;;;;;;;9.55;2.13;;;;;;;;;;4907062;29;20220;-70
2022/11/01 10:37:13;;;;;;;5.07;2.10;;;;;;;;;;4906723;28;20147;-70
2022/11/01 10:40:14;;;;;;;11.05;2.13;;;;;;;;;;4881483;29;20047;-70
2022/11/01 10:42:40;;;;;;;12.50;2.97;;;;;;;;;;4913434;28;20935;-70
2022/11/01 10:45:09;;;;;;;4.63;2.10;;;;;;;;;;4906124;29;20048;-70
2022/11/01 10:47:35;;;;;;;7.32;2.10;;;;;;;;;;4906576;28;20056;-71
2022/11/01 10:50:09;;;;;;;9.98;2.35;;;;;;;;;;4906886;29;20054;-70
2022/11/01 10:53:02;;;;;;;8.52;1.88;;;;;;;;;;4906749;29;20036;-70
2022/11/01 10:55:51;;;;;;;3.28;1.45;;;;;;;;;;4904208;29;20051;-70
2022/11/01 10:58:31;;;;;;;6.38;2.00;;;;;;;;;;4906184;29;20919;-70
2022/11/01 11:00:59;;;;;;;6.13;1.83;;;;;;;;;;4906532;28;20060;-70
2022/11/01 11:03:29;;;;;;;6.30;1.80;;;;;;;;;;4906271;29;20059;-70
2022/11/01 11:05:58;;;;;;;9.90;1.88;;;;;;;;;;4906397;28;20048;-70
2022/11/01 11:08:25;;;;;;;3.72;1.50;;;;;;;;;;4905989;29;20051;-71
2022/11/01 11:10:50;;;;;;;6.75;2.00;;;;;;;;;;4906502;29;20044;-70
2022/11/01 11:13:20;;;;;;;5.30;1.88;;;;;;;;;;4905827;28;20051;-70
2022/11/01 11:15:51;;;;;;;6.57;1.80;;;;;;;;;;4906453;29;20056;-70
2022/11/01 11:18:28;;;;;;;7.53;1.90;;;;;;;;;;4906048;28;20052;-70
2022/11/01 11:20:58;;;;;;;9.38;1.92;;;;;;;;;;4906408;29;20520;-70
2022/11/01 11:23:26;;;;;;;6.97;2.53;;;;;;;;;;4906193;28;20052;-70
2022/11/01 11:25:51;;;;;;;6.03;1.70;;;;;;;;;;4906381;29;20050;-71
2022/11/01 11:28:29;;;;;;;8.32;1.92;;;;;;;;;;4906499;29;20392;-71
2022/11/01 11:30:54;;;;;;;5.97;2.28;;;;;;;;;;4905481;28;20052;-71
2022/11/01 11:33:21;;;;;;;7.75;1.85;;;;;;;;;;4905505;29;20055;-70
2022/11/01 11:35:56;;;;;;;9.25;2.00;;;;;;;;;;4906075;28;20063;-70
2022/11/01 11:38:40;;;;;;;5.30;1.60;;;;;;;;;;4905952;29;20044;-70
2022/11/01 11:41:08;;;;;;;8.15;1.75;;;;;;;;;;4903611;28;20056;-71
2022/11/01 11:43:35;;;;;;;6.40;2.05;;;;;;;;;;4906030;29;20044;-71
2022/11/01 11:46:09;;;;;;;6.40;1.73;;;;;;;;;;4905994;29;20599;-71
2022/11/01 11:48:51;;;;;;;4.32;1.80;;;;;;;;;;4907373;28;20055;-70
2022/11/01 11:51:17;;;;;;;8.57;2.10;;;;;;;;;;4919443;29;20108;-70
2022/11/01 11:53:43;;;;;;;4.05;1.98;;;;;;;;;;4920332;28;20052;-70
2022/11/01 11:56:10;;;;;;;4.57;1.98;;;;;;;;;;4905633;29;20051;-71
2022/11/01 11:58:47;;;;;;;7.68;2.15;;;;;;;;;;4904497;29;20059;-70
2022/11/01 12:01:24;;;;;;;5.35;1.90;;;;;;;;;;4904826;28;20044;-70
2022/11/01 12:04:20;;;;;;;7.50;1.90;;;;;;;;;;4904842;29;20151;-70
2022/11/01 12:06:46;;;;;;;7.38;1.90;;;;;;;;;;4908399;28;20060;-70
2022/11/01 12:09:40;;;;;;;6.13;2.00;;;;;;;;;;4905176;29;20048;-70
2022/11/01 12:12:27;;;;;;;14.25;2.05;;;;;;;;;;4906670;28;20052;-70
2022/11/01 12:14:54;;;;;;;6.93;1.55;;;;;;;;;;4904574;29;20094;-70
2022/11/01 12:17:42;;;;;;;6.38;1.70;;;;;;;;;;4904046;28;20076;-70
2022/11/01 12:20:17;;;;;;;10.27;1.80;;;;;;;;;;4905505;29;20073;-70
2022/11/01 12:23:05;;;;;;;6.13;1.90;;;;;;;;;;4905553;29;20052;-70
2022/11/01 12:25:33;;;;;;;5.40;1.75;;;;;;;;;;4917696;29;20051;-70
2022/11/01 12:28:21;;;;;;;3.70;1.52;;;;;;;;;;4905087;29;20052;-70
2022/11/01 12:30:51;;;;;;;6.88;1.90;;;;;;;;;;4904812;28;20044;-70
2022/11/01 12:33:29;;;;;;;9.80;1.95;;;;;;;;;;4904272;29;20160;-70
2022/11/01 12:35:57;;;;;;;7.15;2.28;;;;;;;;;;4904291;28;20047;-70
2022/11/01 12:38:36;;;;;;;4.65;1.60;;;;;;;;;;4905089;29;20139;-70
2022/11/01 12:41:29;;;;;;;2.30;1.50;;;;;;;;;;4904348;28;20148;-70
2022/11/01 12:44:02;;;;;;;6.20;1.90;;;;;;;;;;4904539;29;20087;-70
2022/11/01 12:46:36;;;;;;;4.55;1.75;;;;;;;;;;4903905;29;20051;-71
2022/11/01 12:49:11;;;;;;;3.88;2.30;;;;;;;;;;4904315;28;20516;-70
2022/11/01 12:51:45;;;;;;;6.13;1.70;;;;;;;;;;4904794;29;20551;-70
2022/11/01 12:54:13;;;;;;;3.65;1.38;;;;;;;;;;4904856;28;20916;-70
2022/11/01 12:56:38;;;;;;;5.82;1.52;;;;;;;;;;4904922;29;20039;-70
2022/11/01 12:59:05;;;;;;;4.97;1.60;;;;;;;;;;4903285;28;20945;-70
2022/11/01 13:02:00;;;;;;;3.40;1.55;;;;;;;;;;4904471;29;20171;-70
2022/11/01 13:04:29;;;;;;;9.02;2.72;;;;;;;;;;4904302;29;20044;-70
2022/11/01 13:07:06;;;;;;;4.45;1.60;;;;;;;;;;4904494;28;20059;-70
2022/11/01 13:09:53;;;;;;;8.35;1.73;;;;;;;;;;4916570;29;20056;-70
2022/11/01 13:12:28;;;;;;;2.90;1.58;;;;;;;;;;4904403;28;20123;-70
2022/11/01 13:15:05;;;;;;;2.60;1.15;;;;;;;;;;4904511;29;20091;-70
2022/11/01 13:17:52;;;;;;;2.10;1.40;;;;;;;;;;4917281;29;20056;-70
2022/11/01 13:20:51;;;;;;;4.15;1.40;;;;;;;;;;4904010;29;20512;-70
2022/11/01 13:23:27;;;;;;;5.38;1.48;;;;;;;;;;4903630;28;20079;-70
2022/11/01 13:26:06;;;;;;;3.13;1.25;;;;;;;;;;4904343;29;20526;-70
2022/11/01 13:28:40;;;;;;;7.47;1.27;;;;;;;;;;4904657;28;20058;-70
2022/11/01 13:31:20;;;;;;;4.40;1.15;;;;;;;;;;4906966;29;20564;-70
2022/11/01 13:33:52;;;;;;;1.85;1.15;;;;;;;;;;4908357;29;20091;-70
2022/11/01 13:36:30;;;;;;;3.22;1.20;;;;;;;;;;4908134;29;20055;-70
2022/11/01 13:39:12;;;;;;;2.15;1.40;;;;;;;;;;4908139;28;20063;-70
2022/11/01 13:41:49;;;;;;;6.72;1.55;;;;;;;;;;4920046;29;20118;-70
2022/11/01 13:44:19;;;;;;;3.25;1.38;;;;;;;;;;4907628;28;20054;-71
2022/11/01 13:47:07;;;;;;;5.32;1.15;;;;;;;;;;4907750;29;20052;-71
2022/11/01 13:50:27;;;;;;;2.72;1.50;;;;;;;;;;4920708;29;20047;-71
2022/11/01 13:53:10;;;;;;;3.38;1.00;;;;;;;;;;4907143;29;20055;-70
2022/11/01 13:55:52;;;;;;;7.07;1.30;;;;;;;;;;4920390;29;20052;-70
2022/11/01 13:58:19;;;;;;;3.70;1.30;;;;;;;;;;4907960;29;20427;-71
2022/11/01 14:00:48;;;;;;;0.95;0.82;;;;;;;;;;4907947;28;20446;-71
2022/11/01 14:03:28;;;;;;;2.20;1.00;;;;;;;;;;4906193;29;20404;-71
2022/11/01 14:06:05;;;;;;;3.15;1.00;;;;;;;;;;4907684;28;20056;-71
2022/11/01 14:08:36;;;;;;;4.35;1.50;;;;;;;;;;4906715;29;20107;-71
2022/11/01 14:11:02;;;;;;;1.90;1.08;;;;;;;;;;4907226;28;20044;-71
2022/11/01 14:13:39;;;;;;;1.98;0.80;;;;;;;;;;4907682;29;20107;-73
2022/11/01 14:16:13;;;;;;;2.47;1.13;;;;;;;;;;4906474;29;20047;-71
2022/11/01 14:19:01;;;;;;;2.00;1.02;;;;;;;;;;4907365;28;20130;-71
2022/11/01 14:21:30;;;;;;;3.17;1.10;;;;;;;;;;4907115;29;20056;-71
2022/11/01 14:24:15;;;;;;;3.85;1.40;;;;;;;;;;4907101;28;20551;-71
2022/11/01 14:26:47;;;;;;;3.38;0.90;;;;;;;;;;4906854;29;20056;-71
2022/11/01 14:29:13;;;;;;;7.40;1.40;;;;;;;;;;4906912;28;20048;-71
2022/11/01 14:31:43;;;;;;;4.40;1.65;;;;;;;;;;4907041;29;20112;-71
2022/11/01 14:34:31;;;;;;;3.40;1.20;;;;;;;;;;4907378;29;20048;-71
2022/11/01 14:37:04;;;;;;;4.93;1.30;;;;;;;;;;4906471;28;20425;-71
2022/11/01 14:39:45;;;;;;;6.07;1.30;;;;;;;;;;4906019;29;20080;-71
2022/11/01 14:42:15;;;;;;;4.20;2.30;;;;;;;;;;4906875;28;20752;-72
2022/11/01 14:44:46;;;;;;;2.97;1.63;;;;;;;;;;4907107;29;20064;-71
2022/11/01 14:47:31;;;;;;;5.93;1.73;;;;;;;;;;4905541;28;20055;-71
2022/11/01 14:50:04;;;;;;;8.40;2.00;;;;;;;;;;4907248;29;20060;-71
2022/11/01 14:52:57;;;;;;;4.22;2.15;;;;;;;;;;4907046;29;20130;-71
2022/11/01 14:55:27;;;;;;;5.35;2.97;;;;;;;;;;4906506;28;20060;-71
2022/11/01 14:58:22;;;;;;;6.13;3.33;;;;;;;;;;4906844;29;20107;-71
2022/11/01 15:00:53;;;;;;;8.52;4.78;;;;;;;;;;4906496;28;20511;-71
2022/11/01 15:03:20;;;;;;;12.45;6.40;;;;;;;;;;4905939;29;20405;-71
2022/11/01 15:05:49;;;;;;;17.45;8.25;;;;;;;;;;4906992;28;20071;-71
2022/11/01 15:08:21;;;;;;;15.35;7.28;;;;;;;;;;4906759;29;20441;-71
2022/11/01 15:10:47;;;;;;;12.32;6.95;;;;;;;;;;4906320;29;21112;-71